sensor_id;sensor_type;location;lat;lon;timestamp;temperature;humidity
5731;DHT22;2890;51.950;7.668;2022-10-16T00:01:31;13.30;99.90
5731;DHT22;2890;51.950;7.668;2022-10-16T00:03:59;13.30;99.90
5731;DHT22;2890;51.950;7.668;2022-10-16T00:06:27;13.20;99.90
5731;DHT22;2890;51.950;7.668;2022-10-16T00:08:54;13.20;99.90
5731;DHT22;2890;51.950;7.668;2022-10-16T00:11:25;13.20;99.90
5731;DHT22;2890;51.950;7.668;2022-10-16T00:13:55;13.20;99.90
5731;DHT22;2890;51.950;7.668;2022-10-16T00:16:22;13.30;99.90
5731;DHT22;2890;51.950;7.668;2022-10-16T00:18:49;13.20;99.90
5731;DHT22;2890;51.950;7.668;2022-10-16T00:21:17;13.20;99.90
5731;DHT22;2890;51.950;7.668;2022-10-16T00:23:44;13.20;99.90
5731;DHT22;2890;51.950;7.668;2022-10-16T00:26:12;13.20;99.90
5731;DHT22;2890;51.950;7.668;2022-10-16T00:28:41;13.20;99.90
5731;DHT22;2890;51.950;7.668;2022-10-16T00:31:09;13.20;99.90
5731;DHT22;2890;51.950;7.668;2022-10-16T00:33:37;13.20;99.90
5731;DHT22;2890;51.950;7.668;2022-10-16T00:36:05;13.30;99.90
5731;DHT22;2890;51.950;7.668;2022-10-16T00:38:33;13.20;99.90
5731;DHT22;2890;51.950;7.668;2022-10-16T00:41:00;13.20;99.90
5731;DHT22;2890;51.950;7.668;2022-10-16T00:43:36;13.20;99.90
5731;DHT22;2890;51.950;7.668;2022-10-16T00:46:08;13.20;99.90
5731;DHT22;2890;51.950;7.668;2022-10-16T00:48:35;13.10;99.90
5731;DHT22;2890;51.950;7.668;2022-10-16T00:51:02;13.10;99.90
5731;DHT22;2890;51.950;7.668;2022-10-16T00:53:30;13.20;99.90
5731;DHT22;2890;51.950;7.668;2022-10-16T00:55:57;13.20;99.90
5731;DHT22;2890;51.950;7.668;2022-10-16T00:58:24;13.20;99.90
5731;DHT22;2890;51.950;7.668;2022-10-16T01:00:51;13.30;99.90
5731;DHT22;2890;51.950;7.668;2022-10-16T01:03:27;13.30;99.90
5731;DHT22;2890;51.950;7.668;2022-10-16T01:06:04;13.20;99.90
5731;DHT22;2890;51.950;7.668;2022-10-16T01:08:39;13.20;99.90
5731;DHT22;2890;51.950;7.668;2022-10-16T01:11:16;13.20;99.90
5731;DHT22;2890;51.950;7.668;2022-10-16T01:13:47;13.20;99.90
5731;DHT22;2890;51.950;7.668;2022-10-16T01:16:19;13.20;99.90
5731;DHT22;2890;51.950;7.668;2022-10-16T01:18:53;13.20;99.90
5731;DHT22;2890;51.950;7.668;2022-10-16T01:21:24;13.20;99.90
5731;DHT22;2890;51.950;7.668;2022-10-16T01:24:01;13.20;99.90
5731;DHT22;2890;51.950;7.668;2022-10-16T01:26:41;13.10;99.90
5731;DHT22;2890;51.950;7.668;2022-10-16T01:29:17;13.10;99.90
5731;DHT22;2890;51.950;7.668;2022-10-16T01:31:50;13.10;99.90
5731;DHT22;2890;51.950;7.668;2022-10-16T01:34:24;13.10;99.90
5731;DHT22;2890;51.950;7.668;2022-10-16T01:36:55;13.00;99.90
5731;DHT22;2890;51.950;7.668;2022-10-16T01:39:25;13.00;99.90
5731;DHT22;2890;51.950;7.668;2022-10-16T01:41:57;13.00;99.90
5731;DHT22;2890;51.950;7.668;2022-10-16T01:44:29;12.90;99.90
5731;DHT22;2890;51.950;7.668;2022-10-16T01:46:57;12.90;99.90
5731;DHT22;2890;51.950;7.668;2022-10-16T01:49:27;13.00;99.90
5731;DHT22;2890;51.950;7.668;2022-10-16T01:51:59;13.00;99.90
5731;DHT22;2890;51.950;7.668;2022-10-16T01:54:27;13.00;99.90
5731;DHT22;2890;51.950;7.668;2022-10-16T01:56:55;13.00;99.90
5731;DHT22;2890;51.950;7.668;2022-10-16T01:59:26;12.90;99.90
5731;DHT22;2890;51.950;7.668;2022-10-16T02:01:56;12.90;99.90
5731;DHT22;2890;51.950;7.668;2022-10-16T02:04:29;12.90;99.90
5731;DHT22;2890;51.950;7.668;2022-10-16T02:06:57;12.90;99.90
5731;DHT22;2890;51.950;7.668;2022-10-16T02:09:24;12.90;99.90
5731;DHT22;2890;51.950;7.668;2022-10-16T02:11:53;12.90;99.90
5731;DHT22;2890;51.950;7.668;2022-10-16T02:14:21;12.80;99.90
5731;DHT22;2890;51.950;7.668;2022-10-16T02:16:51;12.80;99.90
5731;DHT22;2890;51.950;7.668;2022-10-16T02:19:19;12.80;99.90
5731;DHT22;2890;51.950;7.668;2022-10-16T02:21:51;12.80;99.90
5731;DHT22;2890;51.950;7.668;2022-10-16T02:24:23;12.70;99.90
5731;DHT22;2890;51.950;7.668;2022-10-16T02:26:59;12.70;99.90
5731;DHT22;2890;51.950;7.668;2022-10-16T02:29:28;12.60;99.90
5731;DHT22;2890;51.950;7.668;2022-10-16T02:32:00;12.60;99.90
5731;DHT22;2890;51.950;7.668;2022-10-16T02:34:30;12.60;99.90
5731;DHT22;2890;51.950;7.668;2022-10-16T02:36:59;12.50;99.90
5731;DHT22;2890;51.950;7.668;2022-10-16T02:39:27;12.50;99.90
5731;DHT22;2890;51.950;7.668;2022-10-16T02:41:55;12.40;99.90
5731;DHT22;2890;51.950;7.668;2022-10-16T02:44:21;12.40;99.90
5731;DHT22;2890;51.950;7.668;2022-10-16T02:46:48;12.50;99.90
5731;DHT22;2890;51.950;7.668;2022-10-16T02:49:16;12.40;99.90
5731;DHT22;2890;51.950;7.668;2022-10-16T02:51:43;12.40;99.90
5731;DHT22;2890;51.950;7.668;2022-10-16T02:54:10;12.40;99.90
5731;DHT22;2890;51.950;7.668;2022-10-16T02:56:36;12.40;99.90
5731;DHT22;2890;51.950;7.668;2022-10-16T02:59:04;12.40;99.90
5731;DHT22;2890;51.950;7.668;2022-10-16T03:01:31;12.40;99.90
5731;DHT22;2890;51.950;7.668;2022-10-16T03:03:57;12.40;99.90
5731;DHT22;2890;51.950;7.668;2022-10-16T03:06:25;12.50;99.90
5731;DHT22;2890;51.950;7.668;2022-10-16T03:08:52;12.50;99.90
5731;DHT22;2890;51.950;7.668;2022-10-16T03:11:19;12.50;99.90
5731;DHT22;2890;51.950;7.668;2022-10-16T03:13:46;12.50;99.90
5731;DHT22;2890;51.950;7.668;2022-10-16T03:16:12;12.50;99.90
5731;DHT22;2890;51.950;7.668;2022-10-16T03:18:39;12.50;99.90
5731;DHT22;2890;51.950;7.668;2022-10-16T03:21:06;12.50;99.90
5731;DHT22;2890;51.950;7.668;2022-10-16T03:23:34;12.50;99.90
5731;DHT22;2890;51.950;7.668;2022-10-16T03:26:01;12.50;99.90
5731;DHT22;2890;51.950;7.668;2022-10-16T03:28:27;12.50;99.90
5731;DHT22;2890;51.950;7.668;2022-10-16T03:30:54;12.50;99.90
5731;DHT22;2890;51.950;7.668;2022-10-16T03:33:21;12.50;99.90
5731;DHT22;2890;51.950;7.668;2022-10-16T03:35:51;12.50;99.90
5731;DHT22;2890;51.950;7.668;2022-10-16T03:38:19;12.50;99.90
5731;DHT22;2890;51.950;7.668;2022-10-16T03:40:48;12.50;99.90
5731;DHT22;2890;51.950;7.668;2022-10-16T03:43:14;12.50;99.90
5731;DHT22;2890;51.950;7.668;2022-10-16T03:45:41;12.60;99.90
5731;DHT22;2890;51.950;7.668;2022-10-16T03:48:08;12.60;99.90
5731;DHT22;2890;51.950;7.668;2022-10-16T03:50:34;12.60;99.90
5731;DHT22;2890;51.950;7.668;2022-10-16T03:53:01;12.60;99.90
5731;DHT22;2890;51.950;7.668;2022-10-16T03:55:28;12.60;99.90
5731;DHT22;2890;51.950;7.668;2022-10-16T03:57:56;12.50;99.90
5731;DHT22;2890;51.950;7.668;2022-10-16T04:00:23;12.50;99.90
5731;DHT22;2890;51.950;7.668;2022-10-16T04:02:50;12.50;99.90
5731;DHT22;2890;51.950;7.668;2022-10-16T04:05:16;12.40;99.90
5731;DHT22;2890;51.950;7.668;2022-10-16T04:07:43;12.40;99.90
5731;DHT22;2890;51.950;7.668;2022-10-16T04:10:10;12.40;99.90
5731;DHT22;2890;51.950;7.668;2022-10-16T04:12:36;12.40;99.90
5731;DHT22;2890;51.950;7.668;2022-10-16T04:15:05;12.40;99.90
5731;DHT22;2890;51.950;7.668;2022-10-16T04:17:32;12.40;99.90
5731;DHT22;2890;51.950;7.668;2022-10-16T04:19:59;12.30;99.90
5731;DHT22;2890;51.950;7.668;2022-10-16T04:22:26;12.40;99.90
5731;DHT22;2890;51.950;7.668;2022-10-16T04:24:52;12.40;99.90
5731;DHT22;2890;51.950;7.668;2022-10-16T04:27:19;12.40;99.90
5731;DHT22;2890;51.950;7.668;2022-10-16T04:29:46;12.40;99.90
5731;DHT22;2890;51.950;7.668;2022-10-16T04:32:15;12.40;99.90
5731;DHT22;2890;51.950;7.668;2022-10-16T04:34:42;12.50;99.90
5731;DHT22;2890;51.950;7.668;2022-10-16T04:37:09;12.50;99.90
5731;DHT22;2890;51.950;7.668;2022-10-16T04:39:36;12.50;99.90
5731;DHT22;2890;51.950;7.668;2022-10-16T04:42:03;12.50;99.90
5731;DHT22;2890;51.950;7.668;2022-10-16T04:44:29;12.50;99.90
5731;DHT22;2890;51.950;7.668;2022-10-16T04:46:56;12.50;99.90
5731;DHT22;2890;51.950;7.668;2022-10-16T04:49:24;12.50;99.90
5731;DHT22;2890;51.950;7.668;2022-10-16T04:51:51;12.50;99.90
5731;DHT22;2890;51.950;7.668;2022-10-16T04:54:18;12.50;99.90
5731;DHT22;2890;51.950;7.668;2022-10-16T04:56:45;12.50;99.90
5731;DHT22;2890;51.950;7.668;2022-10-16T04:59:13;12.50;99.90
5731;DHT22;2890;51.950;7.668;2022-10-16T05:01:40;12.50;99.90
5731;DHT22;2890;51.950;7.668;2022-10-16T05:04:07;12.50;99.90
5731;DHT22;2890;51.950;7.668;2022-10-16T05:06:35;12.50;99.90
5731;DHT22;2890;51.950;7.668;2022-10-16T05:09:04;12.60;99.90
5731;DHT22;2890;51.950;7.668;2022-10-16T05:11:31;12.60;99.90
5731;DHT22;2890;51.950;7.668;2022-10-16T05:13:58;12.50;99.90
5731;DHT22;2890;51.950;7.668;2022-10-16T05:16:24;12.50;99.90
5731;DHT22;2890;51.950;7.668;2022-10-16T05:18:51;12.50;99.90
5731;DHT22;2890;51.950;7.668;2022-10-16T05:21:18;12.50;99.90
5731;DHT22;2890;51.950;7.668;2022-10-16T05:23:46;12.50;99.90
5731;DHT22;2890;51.950;7.668;2022-10-16T05:26:13;12.50;99.90
5731;DHT22;2890;51.950;7.668;2022-10-16T05:28:40;12.50;99.90
5731;DHT22;2890;51.950;7.668;2022-10-16T05:31:08;12.50;99.90
5731;DHT22;2890;51.950;7.668;2022-10-16T05:33:35;12.50;99.90
5731;DHT22;2890;51.950;7.668;2022-10-16T05:36:02;12.50;99.90
5731;DHT22;2890;51.950;7.668;2022-10-16T05:38:29;12.50;99.90
5731;DHT22;2890;51.950;7.668;2022-10-16T05:40:57;12.50;99.90
5731;DHT22;2890;51.950;7.668;2022-10-16T05:43:24;12.50;99.90
5731;DHT22;2890;51.950;7.668;2022-10-16T05:45:55;12.50;99.90
5731;DHT22;2890;51.950;7.668;2022-10-16T05:48:22;12.50;99.90
5731;DHT22;2890;51.950;7.668;2022-10-16T05:50:55;12.50;99.90
5731;DHT22;2890;51.950;7.668;2022-10-16T05:53:22;12.50;99.90
5731;DHT22;2890;51.950;7.668;2022-10-16T05:55:52;12.60;99.90
5731;DHT22;2890;51.950;7.668;2022-10-16T05:58:20;12.60;99.90
5731;DHT22;2890;51.950;7.668;2022-10-16T06:00:53;12.60;99.90
5731;DHT22;2890;51.950;7.668;2022-10-16T06:03:20;12.60;99.90
5731;DHT22;2890;51.950;7.668;2022-10-16T06:05:47;12.60;99.90
5731;DHT22;2890;51.950;7.668;2022-10-16T06:08:13;12.60;99.90
5731;DHT22;2890;51.950;7.668;2022-10-16T06:10:40;12.60;99.90
5731;DHT22;2890;51.950;7.668;2022-10-16T06:13:07;12.70;99.90
5731;DHT22;2890;51.950;7.668;2022-10-16T06:15:36;12.70;99.90
5731;DHT22;2890;51.950;7.668;2022-10-16T06:18:04;12.70;99.90
5731;DHT22;2890;51.950;7.668;2022-10-16T06:20:31;12.60;99.90
5731;DHT22;2890;51.950;7.668;2022-10-16T06:22:58;12.70;99.90
5731;DHT22;2890;51.950;7.668;2022-10-16T06:25:25;12.70;99.90
5731;DHT22;2890;51.950;7.668;2022-10-16T06:27:51;12.70;99.90
5731;DHT22;2890;51.950;7.668;2022-10-16T06:30:18;12.70;99.90
5731;DHT22;2890;51.950;7.668;2022-10-16T06:32:46;12.80;99.90
5731;DHT22;2890;51.950;7.668;2022-10-16T06:35:13;12.90;99.90
5731;DHT22;2890;51.950;7.668;2022-10-16T06:37:40;12.90;99.90
5731;DHT22;2890;51.950;7.668;2022-10-16T06:40:07;13.00;99.90
5731;DHT22;2890;51.950;7.668;2022-10-16T06:42:34;13.20;99.90
5731;DHT22;2890;51.950;7.668;2022-10-16T06:45:01;13.20;99.90
5731;DHT22;2890;51.950;7.668;2022-10-16T06:47:28;13.30;99.90
5731;DHT22;2890;51.950;7.668;2022-10-16T06:49:56;13.40;99.90
5731;DHT22;2890;51.950;7.668;2022-10-16T06:52:23;13.50;99.90
5731;DHT22;2890;51.950;7.668;2022-10-16T06:54:50;13.60;99.90
5731;DHT22;2890;51.950;7.668;2022-10-16T06:57:17;13.60;99.90
5731;DHT22;2890;51.950;7.668;2022-10-16T06:59:43;13.70;99.90
5731;DHT22;2890;51.950;7.668;2022-10-16T07:02:10;13.70;99.90
5731;DHT22;2890;51.950;7.668;2022-10-16T07:04:37;13.90;99.90
5731;DHT22;2890;51.950;7.668;2022-10-16T07:07:05;14.10;99.90
5731;DHT22;2890;51.950;7.668;2022-10-16T07:09:32;14.30;99.90
5731;DHT22;2890;51.950;7.668;2022-10-16T07:11:58;14.60;99.90
5731;DHT22;2890;51.950;7.668;2022-10-16T07:14:25;14.90;99.90
5731;DHT22;2890;51.950;7.668;2022-10-16T07:16:52;15.00;99.90
5731;DHT22;2890;51.950;7.668;2022-10-16T07:19:19;15.30;99.90
5731;DHT22;2890;51.950;7.668;2022-10-16T07:21:45;15.50;99.90
5731;DHT22;2890;51.950;7.668;2022-10-16T07:24:15;15.70;99.90
5731;DHT22;2890;51.950;7.668;2022-10-16T07:26:44;15.60;99.90
5731;DHT22;2890;51.950;7.668;2022-10-16T07:29:12;15.50;99.90
5731;DHT22;2890;51.950;7.668;2022-10-16T07:31:40;15.60;99.90
5731;DHT22;2890;51.950;7.668;2022-10-16T07:34:07;16.30;99.90
5731;DHT22;2890;51.950;7.668;2022-10-16T07:36:34;16.40;99.90
5731;DHT22;2890;51.950;7.668;2022-10-16T07:39:01;16.60;99.90
5731;DHT22;2890;51.950;7.668;2022-10-16T07:41:29;17.30;99.90
5731;DHT22;2890;51.950;7.668;2022-10-16T07:43:58;18.00;99.90
5731;DHT22;2890;51.950;7.668;2022-10-16T07:46:26;18.90;99.90
5731;DHT22;2890;51.950;7.668;2022-10-16T07:48:53;19.60;99.90
5731;DHT22;2890;51.950;7.668;2022-10-16T07:51:22;20.00;99.90
5731;DHT22;2890;51.950;7.668;2022-10-16T15:16:30;19.00;78.90
5731;DHT22;2890;51.950;7.668;2022-10-16T15:18:57;18.90;79.40
5731;DHT22;2890;51.950;7.668;2022-10-16T15:21:26;18.80;79.50
5731;DHT22;2890;51.950;7.668;2022-10-16T15:23:53;18.70;79.50
5731;DHT22;2890;51.950;7.668;2022-10-16T15:26:22;18.80;80.20
5731;DHT22;2890;51.950;7.668;2022-10-16T15:28:48;18.70;80.90
5731;DHT22;2890;51.950;7.668;2022-10-16T15:31:15;18.70;81.50
5731;DHT22;2890;51.950;7.668;2022-10-16T15:33:44;18.60;81.60
5731;DHT22;2890;51.950;7.668;2022-10-16T15:36:16;18.60;82.00
5731;DHT22;2890;51.950;7.668;2022-10-16T15:38:43;18.50;82.70
5731;DHT22;2890;51.950;7.668;2022-10-16T15:41:10;18.40;82.60
5731;DHT22;2890;51.950;7.668;2022-10-16T15:43:37;18.40;84.40
5731;DHT22;2890;51.950;7.668;2022-10-16T15:46:05;18.40;86.90
5731;DHT22;2890;51.950;7.668;2022-10-16T15:48:34;18.40;88.20
5731;DHT22;2890;51.950;7.668;2022-10-16T15:51:05;18.40;89.00
5731;DHT22;2890;51.950;7.668;2022-10-16T15:53:31;18.40;90.30
5731;DHT22;2890;51.950;7.668;2022-10-16T15:56:01;18.40;90.90
5731;DHT22;2890;51.950;7.668;2022-10-16T15:58:28;18.30;90.90
5731;DHT22;2890;51.950;7.668;2022-10-16T16:00:55;18.30;90.90
5731;DHT22;2890;51.950;7.668;2022-10-16T16:03:23;18.20;91.00
5731;DHT22;2890;51.950;7.668;2022-10-16T16:05:49;18.20;91.50
5731;DHT22;2890;51.950;7.668;2022-10-16T16:08:18;18.10;91.70
5731;DHT22;2890;51.950;7.668;2022-10-16T16:10:44;18.10;92.30
5731;DHT22;2890;51.950;7.668;2022-10-16T16:13:11;18.00;93.10
5731;DHT22;2890;51.950;7.668;2022-10-16T16:15:39;17.90;93.80
5731;DHT22;2890;51.950;7.668;2022-10-16T16:18:06;17.80;94.20
5731;DHT22;2890;51.950;7.668;2022-10-16T16:20:34;17.80;94.90
5731;DHT22;2890;51.950;7.668;2022-10-16T16:23:01;17.70;94.80
5731;DHT22;2890;51.950;7.668;2022-10-16T16:25:29;17.60;95.40
5731;DHT22;2890;51.950;7.668;2022-10-16T16:27:56;17.40;95.70
5731;DHT22;2890;51.950;7.668;2022-10-16T16:30:23;17.30;96.30
5731;DHT22;2890;51.950;7.668;2022-10-16T16:32:50;17.20;96.90
5731;DHT22;2890;51.950;7.668;2022-10-16T16:35:16;17.20;97.70
5731;DHT22;2890;51.950;7.668;2022-10-16T16:37:43;17.10;98.40
5731;DHT22;2890;51.950;7.668;2022-10-16T16:40:10;17.00;99.20
5731;DHT22;2890;51.950;7.668;2022-10-16T16:42:38;16.90;99.90
5731;DHT22;2890;51.950;7.668;2022-10-16T16:45:06;16.80;99.90
5731;DHT22;2890;51.950;7.668;2022-10-16T16:47:33;16.80;99.90
5731;DHT22;2890;51.950;7.668;2022-10-16T16:50:00;16.70;99.90
5731;DHT22;2890;51.950;7.668;2022-10-16T16:52:30;16.60;99.90
5731;DHT22;2890;51.950;7.668;2022-10-16T16:54:57;16.50;99.90
5731;DHT22;2890;51.950;7.668;2022-10-16T16:57:23;16.40;99.90
5731;DHT22;2890;51.950;7.668;2022-10-16T16:59:51;16.40;99.90
5731;DHT22;2890;51.950;7.668;2022-10-16T17:02:18;16.30;99.90
5731;DHT22;2890;51.950;7.668;2022-10-16T17:04:45;16.30;99.90
5731;DHT22;2890;51.950;7.668;2022-10-16T17:07:12;16.20;99.90
5731;DHT22;2890;51.950;7.668;2022-10-16T17:09:38;16.20;99.90
5731;DHT22;2890;51.950;7.668;2022-10-16T17:12:05;16.20;99.90
5731;DHT22;2890;51.950;7.668;2022-10-16T17:14:32;16.20;99.90
5731;DHT22;2890;51.950;7.668;2022-10-16T17:17:00;16.10;99.90
5731;DHT22;2890;51.950;7.668;2022-10-16T17:19:27;16.10;99.90
5731;DHT22;2890;51.950;7.668;2022-10-16T17:21:53;16.10;99.90
5731;DHT22;2890;51.950;7.668;2022-10-16T17:24:20;16.00;99.90
5731;DHT22;2890;51.950;7.668;2022-10-16T17:26:47;15.90;99.90
5731;DHT22;2890;51.950;7.668;2022-10-16T17:29:15;15.90;99.90
5731;DHT22;2890;51.950;7.668;2022-10-16T17:31:42;15.80;99.90
5731;DHT22;2890;51.950;7.668;2022-10-16T17:34:10;15.80;99.90
5731;DHT22;2890;51.950;7.668;2022-10-16T17:36:38;15.80;99.90
5731;DHT22;2890;51.950;7.668;2022-10-16T17:39:10;15.70;99.90
5731;DHT22;2890;51.950;7.668;2022-10-16T17:41:37;15.80;99.90
5731;DHT22;2890;51.950;7.668;2022-10-16T17:44:05;15.70;99.90
5731;DHT22;2890;51.950;7.668;2022-10-16T17:46:32;15.70;99.90
5731;DHT22;2890;51.950;7.668;2022-10-16T17:48:59;15.70;99.90
5731;DHT22;2890;51.950;7.668;2022-10-16T17:51:29;15.70;99.90
5731;DHT22;2890;51.950;7.668;2022-10-16T17:53:58;15.80;99.90
5731;DHT22;2890;51.950;7.668;2022-10-16T17:56:26;15.80;99.90
5731;DHT22;2890;51.950;7.668;2022-10-16T17:58:54;15.80;99.90
5731;DHT22;2890;51.950;7.668;2022-10-16T18:01:23;15.80;99.90
5731;DHT22;2890;51.950;7.668;2022-10-16T18:03:50;15.90;99.90
5731;DHT22;2890;51.950;7.668;2022-10-16T18:06:18;15.90;99.90
5731;DHT22;2890;51.950;7.668;2022-10-16T18:08:46;15.80;99.90
5731;DHT22;2890;51.950;7.668;2022-10-16T18:11:13;15.80;99.90
5731;DHT22;2890;51.950;7.668;2022-10-16T18:13:40;15.80;99.90
5731;DHT22;2890;51.950;7.668;2022-10-16T18:16:09;15.70;99.90
5731;DHT22;2890;51.950;7.668;2022-10-16T18:18:37;15.70;99.90
5731;DHT22;2890;51.950;7.668;2022-10-16T18:21:06;15.60;99.90
5731;DHT22;2890;51.950;7.668;2022-10-16T18:23:34;15.60;99.90
5731;DHT22;2890;51.950;7.668;2022-10-16T18:26:03;15.50;99.90
5731;DHT22;2890;51.950;7.668;2022-10-16T18:28:30;15.50;99.90
5731;DHT22;2890;51.950;7.668;2022-10-16T18:30:59;15.50;99.90
5731;DHT22;2890;51.950;7.668;2022-10-16T18:33:26;15.50;99.90
5731;DHT22;2890;51.950;7.668;2022-10-16T18:35:55;15.50;99.90
5731;DHT22;2890;51.950;7.668;2022-10-16T18:38:22;15.40;99.90
5731;DHT22;2890;51.950;7.668;2022-10-16T18:40:49;15.40;99.90
5731;DHT22;2890;51.950;7.668;2022-10-16T18:43:17;15.40;99.90
5731;DHT22;2890;51.950;7.668;2022-10-16T18:45:54;15.40;99.90
5731;DHT22;2890;51.950;7.668;2022-10-16T18:48:21;15.40;99.90
5731;DHT22;2890;51.950;7.668;2022-10-16T18:50:48;15.40;99.90
5731;DHT22;2890;51.950;7.668;2022-10-16T18:53:14;15.40;99.90
5731;DHT22;2890;51.950;7.668;2022-10-16T18:55:41;15.40;99.90
5731;DHT22;2890;51.950;7.668;2022-10-16T18:58:08;15.30;99.90
5731;DHT22;2890;51.950;7.668;2022-10-16T19:00:37;15.30;99.90
5731;DHT22;2890;51.950;7.668;2022-10-16T19:03:03;15.40;99.90
5731;DHT22;2890;51.950;7.668;2022-10-16T19:05:32;15.40;99.90
5731;DHT22;2890;51.950;7.668;2022-10-16T19:07:59;15.40;99.90
5731;DHT22;2890;51.950;7.668;2022-10-16T19:10:26;15.50;99.90
5731;DHT22;2890;51.950;7.668;2022-10-16T19:12:53;15.40;99.90
5731;DHT22;2890;51.950;7.668;2022-10-16T19:15:19;15.40;99.90
5731;DHT22;2890;51.950;7.668;2022-10-16T19:17:48;15.40;99.90
5731;DHT22;2890;51.950;7.668;2022-10-16T19:20:15;15.50;99.90
5731;DHT22;2890;51.950;7.668;2022-10-16T19:22:42;15.50;99.90
5731;DHT22;2890;51.950;7.668;2022-10-16T19:25:21;15.50;99.90
5731;DHT22;2890;51.950;7.668;2022-10-16T19:27:48;15.60;99.90
5731;DHT22;2890;51.950;7.668;2022-10-16T19:30:16;15.60;99.90
5731;DHT22;2890;51.950;7.668;2022-10-16T19:32:43;15.50;99.90
5731;DHT22;2890;51.950;7.668;2022-10-16T19:35:11;15.50;99.90
5731;DHT22;2890;51.950;7.668;2022-10-16T19:37:38;15.50;99.90
5731;DHT22;2890;51.950;7.668;2022-10-16T19:40:06;15.50;99.90
5731;DHT22;2890;51.950;7.668;2022-10-16T19:42:33;15.50;99.90
5731;DHT22;2890;51.950;7.668;2022-10-16T19:45:00;15.40;99.90
5731;DHT22;2890;51.950;7.668;2022-10-16T19:47:27;15.40;99.90
5731;DHT22;2890;51.950;7.668;2022-10-16T19:49:54;15.40;99.90
5731;DHT22;2890;51.950;7.668;2022-10-16T19:52:22;15.40;99.90
5731;DHT22;2890;51.950;7.668;2022-10-16T19:54:49;15.40;99.90
5731;DHT22;2890;51.950;7.668;2022-10-16T19:57:15;15.40;99.90
5731;DHT22;2890;51.950;7.668;2022-10-16T19:59:42;15.40;99.90
5731;DHT22;2890;51.950;7.668;2022-10-16T20:02:09;15.40;99.90
5731;DHT22;2890;51.950;7.668;2022-10-16T20:04:36;15.50;99.90
5731;DHT22;2890;51.950;7.668;2022-10-16T20:07:03;15.50;99.90
5731;DHT22;2890;51.950;7.668;2022-10-16T20:09:32;15.50;99.90
5731;DHT22;2890;51.950;7.668;2022-10-16T20:12:00;15.60;99.90
5731;DHT22;2890;51.950;7.668;2022-10-16T20:14:26;15.60;99.90
5731;DHT22;2890;51.950;7.668;2022-10-16T20:16:53;15.50;99.90
5731;DHT22;2890;51.950;7.668;2022-10-16T20:19:20;15.40;99.90
5731;DHT22;2890;51.950;7.668;2022-10-16T20:21:47;15.30;99.90
5731;DHT22;2890;51.950;7.668;2022-10-16T20:24:14;15.20;99.90
5731;DHT22;2890;51.950;7.668;2022-10-16T20:26:42;15.10;99.90
5731;DHT22;2890;51.950;7.668;2022-10-16T20:29:09;15.00;99.90
5731;DHT22;2890;51.950;7.668;2022-10-16T20:31:36;14.90;99.90
5731;DHT22;2890;51.950;7.668;2022-10-16T20:34:04;14.80;99.90
5731;DHT22;2890;51.950;7.668;2022-10-16T20:36:32;14.80;99.90
5731;DHT22;2890;51.950;7.668;2022-10-16T20:38:59;14.80;99.90
5731;DHT22;2890;51.950;7.668;2022-10-16T20:41:27;14.80;99.90
5731;DHT22;2890;51.950;7.668;2022-10-16T20:43:55;14.80;99.90
5731;DHT22;2890;51.950;7.668;2022-10-16T20:46:23;14.80;99.90
5731;DHT22;2890;51.950;7.668;2022-10-16T20:48:51;14.90;99.90
5731;DHT22;2890;51.950;7.668;2022-10-16T20:51:20;14.80;99.90
5731;DHT22;2890;51.950;7.668;2022-10-16T20:53:50;14.70;99.90
5731;DHT22;2890;51.950;7.668;2022-10-16T20:56:18;14.70;99.90
5731;DHT22;2890;51.950;7.668;2022-10-16T20:58:45;14.70;99.90
5731;DHT22;2890;51.950;7.668;2022-10-16T21:01:16;14.60;99.90
5731;DHT22;2890;51.950;7.668;2022-10-16T21:03:43;14.60;99.90
5731;DHT22;2890;51.950;7.668;2022-10-16T21:06:14;14.50;99.90
5731;DHT22;2890;51.950;7.668;2022-10-16T21:08:42;14.50;99.90
5731;DHT22;2890;51.950;7.668;2022-10-16T21:11:10;14.50;99.90
5731;DHT22;2890;51.950;7.668;2022-10-16T21:13:37;14.50;99.90
5731;DHT22;2890;51.950;7.668;2022-10-16T21:16:04;14.50;99.90
5731;DHT22;2890;51.950;7.668;2022-10-16T21:18:32;14.40;99.90
5731;DHT22;2890;51.950;7.668;2022-10-16T21:20:59;14.40;99.90
5731;DHT22;2890;51.950;7.668;2022-10-16T21:23:26;14.40;99.90
5731;DHT22;2890;51.950;7.668;2022-10-16T21:25:53;14.30;99.90
5731;DHT22;2890;51.950;7.668;2022-10-16T21:28:20;14.30;99.90
5731;DHT22;2890;51.950;7.668;2022-10-16T21:30:47;14.20;99.90
5731;DHT22;2890;51.950;7.668;2022-10-16T21:33:14;14.30;99.90
5731;DHT22;2890;51.950;7.668;2022-10-16T21:35:42;14.20;99.90
5731;DHT22;2890;51.950;7.668;2022-10-16T21:38:08;14.10;99.90
5731;DHT22;2890;51.950;7.668;2022-10-16T21:40:35;14.00;99.90
5731;DHT22;2890;51.950;7.668;2022-10-16T21:43:02;14.00;99.90
5731;DHT22;2890;51.950;7.668;2022-10-16T21:45:30;14.00;99.90
5731;DHT22;2890;51.950;7.668;2022-10-16T21:47:57;14.00;99.90
5731;DHT22;2890;51.950;7.668;2022-10-16T21:50:24;14.00;99.90
5731;DHT22;2890;51.950;7.668;2022-10-16T21:52:52;13.90;99.90
5731;DHT22;2890;51.950;7.668;2022-10-16T21:55:18;13.90;99.90
5731;DHT22;2890;51.950;7.668;2022-10-16T21:57:45;14.00;99.90
5731;DHT22;2890;51.950;7.668;2022-10-16T22:00:13;14.00;99.90
5731;DHT22;2890;51.950;7.668;2022-10-16T22:02:40;14.00;99.90
5731;DHT22;2890;51.950;7.668;2022-10-16T22:05:07;14.00;99.90
5731;DHT22;2890;51.950;7.668;2022-10-16T22:07:33;14.00;99.90
5731;DHT22;2890;51.950;7.668;2022-10-16T22:10:02;14.00;99.90
5731;DHT22;2890;51.950;7.668;2022-10-16T22:12:29;14.10;99.90
5731;DHT22;2890;51.950;7.668;2022-10-16T22:14:56;14.00;99.90
5731;DHT22;2890;51.950;7.668;2022-10-16T22:17:23;13.90;99.90
5731;DHT22;2890;51.950;7.668;2022-10-16T22:19:50;13.90;99.90
5731;DHT22;2890;51.950;7.668;2022-10-16T22:22:16;13.80;99.90
5731;DHT22;2890;51.950;7.668;2022-10-16T22:24:43;13.80;99.90
5731;DHT22;2890;51.950;7.668;2022-10-16T22:27:11;13.70;99.90
5731;DHT22;2890;51.950;7.668;2022-10-16T22:29:38;13.60;99.90
5731;DHT22;2890;51.950;7.668;2022-10-16T22:32:05;13.60;99.90
5731;DHT22;2890;51.950;7.668;2022-10-16T22:34:31;13.60;99.90
5731;DHT22;2890;51.950;7.668;2022-10-16T22:36:58;13.60;99.90
5731;DHT22;2890;51.950;7.668;2022-10-16T22:39:25;13.60;99.90
5731;DHT22;2890;51.950;7.668;2022-10-16T22:41:52;13.60;99.90
5731;DHT22;2890;51.950;7.668;2022-10-16T22:44:20;13.50;99.90
5731;DHT22;2890;51.950;7.668;2022-10-16T22:46:47;13.50;99.90
5731;DHT22;2890;51.950;7.668;2022-10-16T22:49:14;13.40;99.90
5731;DHT22;2890;51.950;7.668;2022-10-16T22:51:43;13.40;99.90
5731;DHT22;2890;51.950;7.668;2022-10-16T22:54:10;13.30;99.90
5731;DHT22;2890;51.950;7.668;2022-10-16T22:56:37;13.30;99.90
5731;DHT22;2890;51.950;7.668;2022-10-16T22:59:03;13.30;99.90
5731;DHT22;2890;51.950;7.668;2022-10-16T23:01:35;13.30;99.90
5731;DHT22;2890;51.950;7.668;2022-10-16T23:04:03;13.20;99.90
5731;DHT22;2890;51.950;7.668;2022-10-16T23:06:30;13.20;99.90
5731;DHT22;2890;51.950;7.668;2022-10-16T23:08:59;13.20;99.90
5731;DHT22;2890;51.950;7.668;2022-10-16T23:11:27;13.20;99.90
5731;DHT22;2890;51.950;7.668;2022-10-16T23:13:55;13.20;99.90
5731;DHT22;2890;51.950;7.668;2022-10-16T23:16:22;13.20;99.90
5731;DHT22;2890;51.950;7.668;2022-10-16T23:18:50;13.20;99.90
5731;DHT22;2890;51.950;7.668;2022-10-16T23:21:19;13.20;99.90
5731;DHT22;2890;51.950;7.668;2022-10-16T23:23:47;13.10;99.90
5731;DHT22;2890;51.950;7.668;2022-10-16T23:26:15;13.10;99.90
5731;DHT22;2890;51.950;7.668;2022-10-16T23:28:43;13.10;99.90